createdAt,value
2018-07-05T15:52:17.817Z,23.50
2018-07-05T15:54:58.044Z,23.60
2018-07-05T15:57:38.412Z,23.50
2018-07-05T16:00:18.692Z,23.60
2018-07-05T16:02:59.022Z,24.00
2018-07-05T16:05:39.382Z,24.10
2018-07-05T16:08:19.829Z,23.90
2018-07-05T16:11:00.153Z,23.70
2018-07-05T16:13:40.846Z,23.90
2018-07-05T16:16:21.112Z,23.90
2018-07-05T16:19:01.676Z,24.00
2018-07-05T16:21:41.892Z,23.60
2018-07-05T16:24:22.131Z,23.60
2018-07-05T16:27:02.334Z,23.50
2018-07-05T16:29:42.752Z,23.40
2018-07-05T16:32:22.827Z,23.50
2018-07-05T16:35:03.491Z,23.60
2018-07-05T16:37:43.566Z,23.60
2018-07-05T16:40:23.931Z,23.70
2018-07-05T16:43:04.433Z,23.40
2018-07-05T16:45:44.762Z,23.40
2018-07-05T16:48:25.025Z,23.60
2018-07-05T16:51:06.016Z,23.90
2018-07-05T16:53:46.073Z,24.20
2018-07-05T16:56:26.298Z,24.20
2018-07-05T16:59:06.482Z,23.80
2018-07-05T17:01:46.752Z,23.60
2018-07-05T17:04:26.923Z,23.50
2018-07-05T17:07:07.014Z,23.40
2018-07-05T17:09:47.150Z,23.30
2018-07-05T17:12:28.371Z,23.40
2018-07-05T17:15:08.555Z,23.40
2018-07-05T17:17:48.857Z,23.40
2018-07-05T17:20:29.167Z,23.40
2018-07-05T17:23:09.509Z,23.40
2018-07-05T17:25:49.942Z,23.30
2018-07-05T17:28:30.128Z,23.30
2018-07-05T17:31:10.332Z,23.40
2018-07-05T17:33:50.797Z,23.40
2018-07-05T17:36:31.002Z,23.30
2018-07-05T17:39:11.985Z,23.20
2018-07-05T17:41:52.376Z,23.10
2018-07-05T17:44:32.670Z,23.10
2018-07-05T17:47:13.309Z,23.20
2018-07-05T17:49:53.581Z,23.20
2018-07-05T17:52:33.824Z,23.10
2018-07-05T17:55:13.930Z,23.20
2018-07-05T17:57:54.144Z,23.00
2018-07-05T18:00:34.554Z,23.00
2018-07-05T18:03:14.734Z,23.00
2018-07-05T18:05:55.178Z,23.00
2018-07-05T18:08:35.417Z,22.90
2018-07-05T18:11:15.861Z,22.90
2018-07-05T18:13:55.974Z,23.10
2018-07-05T18:16:36.366Z,23.20
2018-07-05T18:19:16.490Z,23.10
2018-07-05T18:21:57.017Z,23.10
2018-07-05T18:24:37.860Z,23.10
2018-07-05T18:27:17.980Z,23.00
2018-07-05T18:29:58.550Z,23.10
2018-07-05T18:32:38.993Z,23.00
2018-07-05T18:35:19.316Z,22.90
2018-07-05T18:37:59.422Z,22.90
2018-07-05T18:40:39.745Z,22.70
2018-07-05T18:43:20.017Z,22.70
2018-07-05T18:46:00.195Z,22.70
2018-07-05T18:48:40.440Z,22.80
2018-07-05T18:51:20.590Z,22.90
2018-07-05T18:54:00.983Z,23.00
2018-07-05T18:56:41.227Z,22.90
2018-07-05T18:59:21.798Z,22.90
2018-07-05T19:02:02.310Z,22.90
2018-07-05T19:04:42.599Z,22.90
2018-07-05T19:07:22.820Z,22.90
2018-07-05T19:10:02.956Z,22.80
2018-07-05T19:12:43.133Z,22.60
2018-07-05T19:15:23.421Z,22.60
2018-07-05T19:18:03.933Z,22.60
2018-07-05T19:20:44.101Z,22.60
2018-07-05T19:23:24.431Z,22.60
2018-07-05T19:26:04.603Z,22.60
2018-07-05T19:28:44.843Z,22.70
2018-07-05T19:31:25.083Z,22.60
2018-07-05T19:34:05.394Z,22.40
2018-07-05T19:36:45.609Z,22.50
2018-07-05T19:39:25.933Z,22.40
2018-07-05T19:42:06.240Z,22.50
2018-07-05T19:44:46.571Z,22.50
2018-07-05T19:47:26.957Z,22.40
2018-07-05T19:50:07.497Z,22.20
2018-07-05T19:52:47.761Z,22.40
2018-07-05T19:55:28.109Z,22.30
2018-07-05T19:58:08.424Z,22.40
2018-07-05T20:00:48.618Z,22.40
2018-07-05T20:03:28.929Z,22.30
2018-07-05T20:06:09.003Z,22.30
2018-07-05T20:08:49.403Z,22.20
2018-07-05T20:11:29.649Z,22.20
2018-07-05T20:14:09.764Z,22.10
2018-07-05T20:16:50.247Z,22.10
2018-07-05T20:19:30.981Z,22.20
2018-07-05T20:22:16.801Z,22.10
2018-07-05T20:24:57.133Z,22.10
2018-07-05T20:27:37.633Z,22.10
2018-07-05T20:30:18.081Z,22.10
2018-07-05T20:32:58.393Z,22.00
2018-07-05T20:35:38.715Z,22.10
2018-07-05T20:38:18.821Z,22.00
2018-07-05T20:40:59.270Z,22.00
2018-07-05T20:43:39.804Z,22.00
2018-07-05T20:46:20.144Z,21.90
2018-07-05T20:49:00.545Z,21.80
2018-07-05T20:51:40.829Z,21.80
2018-07-05T20:54:21.169Z,21.90
2018-07-05T20:57:01.583Z,21.80
2018-07-05T20:59:42.784Z,21.60
2018-07-05T21:02:23.995Z,21.60
2018-07-05T21:05:04.579Z,21.60
2018-07-05T21:07:46.245Z,21.60
2018-07-05T21:10:26.688Z,21.70
2018-07-05T21:13:07.443Z,21.60
2018-07-05T21:15:47.601Z,21.60
2018-07-05T21:18:27.601Z,21.70
2018-07-05T21:21:08.514Z,21.60
2018-07-05T21:23:48.497Z,21.50
2018-07-05T21:26:29.176Z,21.70
2018-07-05T21:29:09.428Z,21.70
2018-07-05T21:31:49.816Z,21.80
2018-07-05T21:34:30.384Z,21.80
2018-07-05T21:39:44.948Z,21.80
2018-07-05T21:42:25.362Z,21.80
2018-07-05T21:45:05.484Z,21.70
2018-07-05T21:47:45.699Z,21.60
2018-07-05T21:50:26.786Z,21.60
2018-07-05T21:53:07.229Z,21.50
2018-07-05T21:55:47.690Z,21.40
2018-07-05T21:58:28.415Z,21.60
2018-07-05T22:01:08.816Z,21.70
2018-07-05T22:03:48.850Z,21.40
2018-07-05T22:06:29.056Z,21.40
2018-07-05T22:09:09.443Z,21.20
2018-07-05T22:11:49.700Z,21.20
2018-07-05T22:14:30.308Z,21.20
2018-07-05T22:17:15.962Z,21.20
2018-07-05T22:20:01.744Z,21.20
2018-07-05T22:22:47.633Z,21.50
2018-07-05T22:25:33.824Z,21.50
2018-07-05T22:28:19.621Z,21.60
2018-07-05T22:31:05.442Z,21.40
2018-07-05T22:33:45.794Z,21.60
2018-07-05T22:36:25.916Z,21.40
2018-07-05T22:39:06.608Z,21.20
2018-07-05T22:41:46.940Z,21.00
2018-07-05T22:44:27.308Z,21.20
2018-07-05T22:47:07.740Z,21.20
2018-07-05T22:49:48.028Z,21.30
2018-07-05T22:52:28.197Z,21.10
2018-07-05T22:55:08.452Z,20.90
2018-07-05T22:57:48.640Z,21.00
2018-07-05T23:00:28.946Z,20.90
2018-07-05T23:03:09.062Z,21.00
2018-07-05T23:05:49.270Z,20.90
2018-07-05T23:08:29.800Z,20.90
2018-07-05T23:11:10.159Z,21.00
2018-07-05T23:13:51.029Z,21.00
2018-07-05T23:16:31.089Z,21.00
2018-07-05T23:19:11.560Z,21.00
2018-07-05T23:21:52.183Z,20.90
2018-07-05T23:24:33.139Z,20.90
2018-07-05T23:27:13.702Z,21.10
2018-07-05T23:29:53.878Z,21.10
2018-07-05T23:32:34.030Z,21.20
2018-07-05T23:35:15.032Z,21.00
2018-07-05T23:37:55.256Z,21.00
2018-07-05T23:40:35.396Z,21.00
2018-07-05T23:43:15.591Z,21.00
2018-07-05T23:45:55.856Z,21.10
2018-07-05T23:48:36.120Z,20.90
2018-07-05T23:51:16.505Z,20.80
2018-07-05T23:53:56.856Z,20.80
2018-07-05T23:56:37.215Z,20.70
2018-07-05T23:59:17.541Z,20.70
